sensor_id;sensor_type;location;lat;lon;timestamp;pressure;altitude;pressure_sealevel;temperature;humidity
35129;BME280;21301;43.626;10.580;2024-01-11T00:00:24;102210.19;;;6.08;59.64
35129;BME280;21301;43.626;10.580;2024-01-11T00:02:57;102207.44;;;6.12;59.85
35129;BME280;21301;43.626;10.580;2024-01-11T00:05:49;102216.88;;;6.16;59.49
35129;BME280;21301;43.626;10.580;2024-01-11T00:08:17;102211.66;;;6.16;59.76
35129;BME280;21301;43.626;10.580;2024-01-11T00:10:48;102200.13;;;6.22;59.62
35129;BME280;21301;43.626;10.580;2024-01-11T00:13:31;102199.41;;;6.18;58.92
35129;BME280;21301;43.626;10.580;2024-01-11T00:15:58;102203.75;;;6.18;58.71
35129;BME280;21301;43.626;10.580;2024-01-11T00:18:24;102203.66;;;6.21;58.60
35129;BME280;21301;43.626;10.580;2024-01-11T00:20:50;102205.44;;;6.21;58.45
35129;BME280;21301;43.626;10.580;2024-01-11T00:23:17;102201.78;;;6.25;58.25
35129;BME280;21301;43.626;10.580;2024-01-11T00:25:44;102195.75;;;6.23;58.32
35129;BME280;21301;43.626;10.580;2024-01-11T00:28:09;102189.56;;;6.25;58.35
35129;BME280;21301;43.626;10.580;2024-01-11T00:30:38;102187.72;;;6.29;58.31
35129;BME280;21301;43.626;10.580;2024-01-11T00:33:05;102184.31;;;6.27;58.55
35129;BME280;21301;43.626;10.580;2024-01-11T00:35:34;102187.03;;;6.24;58.89
35129;BME280;21301;43.626;10.580;2024-01-11T00:38:27;102193.22;;;6.21;59.29
35129;BME280;21301;43.626;10.580;2024-01-11T00:40:53;102189.56;;;6.25;58.89
35129;BME280;21301;43.626;10.580;2024-01-11T00:43:18;102185.97;;;6.29;58.77
35129;BME280;21301;43.626;10.580;2024-01-11T00:45:45;102192.31;;;6.22;58.93
35129;BME280;21301;43.626;10.580;2024-01-11T00:48:12;102190.66;;;6.19;58.89
35129;BME280;21301;43.626;10.580;2024-01-11T00:50:37;102186.13;;;6.25;58.60
35129;BME280;21301;43.626;10.580;2024-01-11T00:53:03;102180.03;;;6.24;58.80
35129;BME280;21301;43.626;10.580;2024-01-11T00:55:29;102188.53;;;6.31;58.63
35129;BME280;21301;43.626;10.580;2024-01-11T00:57:55;102187.06;;;6.22;58.93
35129;BME280;21301;43.626;10.580;2024-01-11T01:00:22;102186.13;;;6.25;59.49
35129;BME280;21301;43.626;10.580;2024-01-11T01:02:49;102174.88;;;6.23;59.28
35129;BME280;21301;43.626;10.580;2024-01-11T01:05:15;102188.88;;;6.20;59.22
35129;BME280;21301;43.626;10.580;2024-01-11T01:07:40;102180.84;;;6.26;59.07
35129;BME280;21301;43.626;10.580;2024-01-11T01:10:07;102186.34;;;6.18;59.22
35129;BME280;21301;43.626;10.580;2024-01-11T01:12:34;102179.34;;;6.19;59.33
35129;BME280;21301;43.626;10.580;2024-01-11T01:14:59;102180.09;;;6.23;59.00
35129;BME280;21301;43.626;10.580;2024-01-11T01:17:25;102189.69;;;6.22;59.28
35129;BME280;21301;43.626;10.580;2024-01-11T01:19:52;102184.72;;;6.14;59.18
35129;BME280;21301;43.626;10.580;2024-01-11T01:22:19;102180.47;;;6.12;59.33
35129;BME280;21301;43.626;10.580;2024-01-11T01:24:45;102192.88;;;6.05;59.54
35129;BME280;21301;43.626;10.580;2024-01-11T01:27:10;102184.94;;;6.08;59.64
35129;BME280;21301;43.626;10.580;2024-01-11T01:29:37;102182.47;;;6.04;59.77
35129;BME280;21301;43.626;10.580;2024-01-11T01:32:02;102187.59;;;6.07;60.05
35129;BME280;21301;43.626;10.580;2024-01-11T01:34:28;102183.44;;;6.01;59.99
35129;BME280;21301;43.626;10.580;2024-01-11T01:36:55;102170.38;;;6.01;59.97
35129;BME280;21301;43.626;10.580;2024-01-11T01:39:20;102180.19;;;5.94;60.10
35129;BME280;21301;43.626;10.580;2024-01-11T01:41:46;102177.47;;;5.97;60.05
35129;BME280;21301;43.626;10.580;2024-01-11T01:44:12;102190.81;;;5.87;60.28
35129;BME280;21301;43.626;10.580;2024-01-11T01:46:37;102181.47;;;5.80;60.57
35129;BME280;21301;43.626;10.580;2024-01-11T01:49:04;102181.16;;;5.64;60.95
35129;BME280;21301;43.626;10.580;2024-01-11T01:51:32;102175.28;;;5.55;61.49
35129;BME280;21301;43.626;10.580;2024-01-11T01:53:58;102179.88;;;5.49;61.41
35129;BME280;21301;43.626;10.580;2024-01-11T01:56:25;102170.31;;;5.48;61.63
35129;BME280;21301;43.626;10.580;2024-01-11T01:58:52;102168.75;;;5.44;61.73
35129;BME280;21301;43.626;10.580;2024-01-11T02:01:22;102159.53;;;5.32;62.19
35129;BME280;21301;43.626;10.580;2024-01-11T02:03:52;102163.88;;;5.31;61.71
35129;BME280;21301;43.626;10.580;2024-01-11T02:06:21;102149.28;;;5.26;62.34
35129;BME280;21301;43.626;10.580;2024-01-11T02:08:48;102152.72;;;5.26;62.17
35129;BME280;21301;43.626;10.580;2024-01-11T02:11:17;102151.03;;;5.25;62.50
35129;BME280;21301;43.626;10.580;2024-01-11T02:13:44;102144.34;;;5.17;62.31
35129;BME280;21301;43.626;10.580;2024-01-11T02:16:12;102150.44;;;5.17;62.39
35129;BME280;21301;43.626;10.580;2024-01-11T02:18:38;102160.09;;;5.13;62.74
35129;BME280;21301;43.626;10.580;2024-01-11T02:21:06;102158.47;;;5.09;62.71
35129;BME280;21301;43.626;10.580;2024-01-11T02:23:43;102160.19;;;5.10;62.62
35129;BME280;21301;43.626;10.580;2024-01-11T02:26:33;102162.88;;;5.07;62.38
35129;BME280;21301;43.626;10.580;2024-01-11T02:28:59;102158.69;;;5.02;63.46
35129;BME280;21301;43.626;10.580;2024-01-11T02:31:25;102155.22;;;5.03;63.13
35129;BME280;21301;43.626;10.580;2024-01-11T02:33:55;102156.28;;;4.96;63.05
35129;BME280;21301;43.626;10.580;2024-01-11T02:36:21;102154.34;;;5.02;63.14
35129;BME280;21301;43.626;10.580;2024-01-11T02:38:48;102147.47;;;5.00;63.19
35129;BME280;21301;43.626;10.580;2024-01-11T02:41:16;102143.25;;;4.96;63.57
35129;BME280;21301;43.626;10.580;2024-01-11T02:43:48;102152.09;;;4.90;63.55
35129;BME280;21301;43.626;10.580;2024-01-11T02:46:17;102148.63;;;4.89;63.44
35129;BME280;21301;43.626;10.580;2024-01-11T02:48:43;102150.53;;;4.84;63.82
35129;BME280;21301;43.626;10.580;2024-01-11T02:51:08;102146.16;;;4.85;63.75
35129;BME280;21301;43.626;10.580;2024-01-11T02:53:34;102135.19;;;4.74;64.52
35129;BME280;21301;43.626;10.580;2024-01-11T02:56:02;102137.88;;;4.70;64.22
35129;BME280;21301;43.626;10.580;2024-01-11T02:58:28;102129.25;;;4.68;64.40
35129;BME280;21301;43.626;10.580;2024-01-11T03:00:55;102125.78;;;4.69;64.29
35129;BME280;21301;43.626;10.580;2024-01-11T03:03:21;102119.78;;;4.66;64.78
35129;BME280;21301;43.626;10.580;2024-01-11T03:05:46;102129.97;;;4.74;64.61
35129;BME280;21301;43.626;10.580;2024-01-11T03:08:12;102130.84;;;4.74;64.34
35129;BME280;21301;43.626;10.580;2024-01-11T03:10:38;102123.09;;;4.71;64.16
35129;BME280;21301;43.626;10.580;2024-01-11T03:13:07;102125.78;;;4.69;64.75
35129;BME280;21301;43.626;10.580;2024-01-11T03:15:33;102128.31;;;4.71;64.23
35129;BME280;21301;43.626;10.580;2024-01-11T03:17:58;102129.19;;;4.72;64.49
35129;BME280;21301;43.626;10.580;2024-01-11T03:20:24;102123.53;;;4.57;64.87
35129;BME280;21301;43.626;10.580;2024-01-11T03:22:53;102127.78;;;4.60;64.76
35129;BME280;21301;43.626;10.580;2024-01-11T03:25:20;102119.25;;;4.55;65.18
35129;BME280;21301;43.626;10.580;2024-01-11T03:27:46;102120.91;;;4.57;65.00
35129;BME280;21301;43.626;10.580;2024-01-11T03:30:12;102121.91;;;4.52;65.61
35129;BME280;21301;43.626;10.580;2024-01-11T03:32:39;102124.63;;;4.48;65.49
35129;BME280;21301;43.626;10.580;2024-01-11T03:35:07;102119.66;;;4.39;65.88
35129;BME280;21301;43.626;10.580;2024-01-11T03:37:32;102122.84;;;4.51;65.59
35129;BME280;21301;43.626;10.580;2024-01-11T03:39:59;102126.50;;;4.43;65.26
35129;BME280;21301;43.626;10.580;2024-01-11T03:42:25;102138.19;;;4.29;65.85
35129;BME280;21301;43.626;10.580;2024-01-11T03:44:51;102133.72;;;4.34;65.91
35129;BME280;21301;43.626;10.580;2024-01-11T03:47:17;102138.22;;;4.27;66.30
35129;BME280;21301;43.626;10.580;2024-01-11T03:49:43;102133.06;;;4.25;66.01
35129;BME280;21301;43.626;10.580;2024-01-11T03:52:09;102137.13;;;4.36;65.57
35129;BME280;21301;43.626;10.580;2024-01-11T03:54:38;102136.53;;;4.26;65.60
35129;BME280;21301;43.626;10.580;2024-01-11T03:57:05;102132.06;;;4.31;65.82
35129;BME280;21301;43.626;10.580;2024-01-11T03:59:32;102135.75;;;4.22;66.35
35129;BME280;21301;43.626;10.580;2024-01-11T04:01:59;102130.56;;;4.21;66.35
35129;BME280;21301;43.626;10.580;2024-01-11T04:04:25;102121.69;;;4.28;65.75
35129;BME280;21301;43.626;10.580;2024-01-11T04:06:51;102121.59;;;4.00;66.50
35129;BME280;21301;43.626;10.580;2024-01-11T04:09:17;102127.78;;;3.96;67.05
35129;BME280;21301;43.626;10.580;2024-01-11T04:11:47;102124.56;;;3.86;67.29
35129;BME280;21301;43.626;10.580;2024-01-11T04:14:14;102115.50;;;4.01;67.11
35129;BME280;21301;43.626;10.580;2024-01-11T04:16:42;102124.41;;;3.92;66.83
35129;BME280;21301;43.626;10.580;2024-01-11T04:19:08;102124.44;;;3.91;67.30
35129;BME280;21301;43.626;10.580;2024-01-11T04:21:35;102122.91;;;4.16;66.38
35129;BME280;21301;43.626;10.580;2024-01-11T04:24:01;102120.88;;;3.95;67.18
35129;BME280;21301;43.626;10.580;2024-01-11T04:26:27;102120.47;;;4.10;66.71
35129;BME280;21301;43.626;10.580;2024-01-11T04:28:52;102125.50;;;4.16;66.40
35129;BME280;21301;43.626;10.580;2024-01-11T04:31:19;102122.97;;;4.13;66.76
35129;BME280;21301;43.626;10.580;2024-01-11T04:33:45;102111.72;;;4.13;66.42
35129;BME280;21301;43.626;10.580;2024-01-11T04:36:13;102114.31;;;4.13;66.47
35129;BME280;21301;43.626;10.580;2024-01-11T04:38:39;102122.44;;;4.00;66.99
35129;BME280;21301;43.626;10.580;2024-01-11T04:41:13;102118.41;;;3.89;67.23
35129;BME280;21301;43.626;10.580;2024-01-11T04:43:42;102115.47;;;4.02;66.69
35129;BME280;21301;43.626;10.580;2024-01-11T04:46:19;102115.38;;;4.05;66.87
35129;BME280;21301;43.626;10.580;2024-01-11T04:48:45;102116.41;;;4.00;67.09
35129;BME280;21301;43.626;10.580;2024-01-11T04:51:13;102118.09;;;4.01;67.06
35129;BME280;21301;43.626;10.580;2024-01-11T04:53:40;102121.53;;;4.01;67.13
35129;BME280;21301;43.626;10.580;2024-01-11T04:56:14;102122.47;;;3.99;67.28
35129;BME280;21301;43.626;10.580;2024-01-11T04:58:41;102120.88;;;3.95;67.32
35129;BME280;21301;43.626;10.580;2024-01-11T05:01:07;102121.81;;;3.92;67.61
35129;BME280;21301;43.626;10.580;2024-01-11T05:03:33;102127.78;;;3.96;67.70
35129;BME280;21301;43.626;10.580;2024-01-11T05:06:00;102125.25;;;3.93;67.05
35129;BME280;21301;43.626;10.580;2024-01-11T05:08:26;102128.72;;;3.93;67.22
35129;BME280;21301;43.626;10.580;2024-01-11T05:10:53;102120.19;;;3.87;67.35
35129;BME280;21301;43.626;10.580;2024-01-11T05:13:18;102118.66;;;3.79;67.31
35129;BME280;21301;43.626;10.580;2024-01-11T05:15:44;102116.00;;;3.82;67.71
35129;BME280;21301;43.626;10.580;2024-01-11T05:18:11;102107.25;;;3.85;67.57
35129;BME280;21301;43.626;10.580;2024-01-11T05:20:37;102110.59;;;3.89;67.68
35129;BME280;21301;43.626;10.580;2024-01-11T05:23:03;102108.91;;;3.88;67.57
35129;BME280;21301;43.626;10.580;2024-01-11T05:25:32;102108.81;;;3.91;67.43
35129;BME280;21301;43.626;10.580;2024-01-11T05:28:01;102106.25;;;3.89;67.44
35129;BME280;21301;43.626;10.580;2024-01-11T05:30:29;102124.41;;;3.92;67.37
35129;BME280;21301;43.626;10.580;2024-01-11T05:32:56;102117.22;;;4.02;67.03
35129;BME280;21301;43.626;10.580;2024-01-11T05:35:22;102116.44;;;3.97;66.81
35129;BME280;21301;43.626;10.580;2024-01-11T05:37:53;102126.13;;;3.92;66.99
35129;BME280;21301;43.626;10.580;2024-01-11T05:40:20;102121.09;;;3.86;66.94
35129;BME280;21301;43.626;10.580;2024-01-11T05:42:48;102123.03;;;3.77;67.01
35129;BME280;21301;43.626;10.580;2024-01-11T05:45:18;102130.03;;;3.75;66.96
35129;BME280;21301;43.626;10.580;2024-01-11T05:47:45;102125.69;;;3.76;67.29
35129;BME280;21301;43.626;10.580;2024-01-11T05:50:13;102133.44;;;3.77;67.29
35129;BME280;21301;43.626;10.580;2024-01-11T05:52:40;102139.44;;;3.81;67.08
35129;BME280;21301;43.626;10.580;2024-01-11T05:55:06;102130.16;;;3.71;67.06
35129;BME280;21301;43.626;10.580;2024-01-11T05:57:33;102136.13;;;3.74;67.17
35129;BME280;21301;43.626;10.580;2024-01-11T05:59:59;102128.91;;;3.86;67.41
35129;BME280;21301;43.626;10.580;2024-01-11T06:02:26;102122.91;;;3.82;67.42
35129;BME280;21301;43.626;10.580;2024-01-11T06:04:53;102133.28;;;3.83;67.16
35129;BME280;21301;43.626;10.580;2024-01-11T06:07:18;102130.56;;;3.88;66.83
35129;BME280;21301;43.626;10.580;2024-01-11T06:09:44;102134.00;;;3.90;67.22
35129;BME280;21301;43.626;10.580;2024-01-11T06:12:10;102139.16;;;3.92;66.69
35129;BME280;21301;43.626;10.580;2024-01-11T06:14:36;102134.94;;;3.88;66.84
35129;BME280;21301;43.626;10.580;2024-01-11T06:17:01;102134.88;;;3.89;67.13
35129;BME280;21301;43.626;10.580;2024-01-11T06:19:28;102142.69;;;3.89;66.82
35129;BME280;21301;43.626;10.580;2024-01-11T06:21:56;102138.41;;;3.87;67.33
35129;BME280;21301;43.626;10.580;2024-01-11T06:24:24;102137.59;;;3.84;67.16
35129;BME280;21301;43.626;10.580;2024-01-11T06:26:50;102142.06;;;3.79;67.83
35129;BME280;21301;43.626;10.580;2024-01-11T06:29:17;102135.91;;;3.83;67.30
35129;BME280;21301;43.626;10.580;2024-01-11T06:31:43;102138.63;;;3.77;67.35
35129;BME280;21301;43.626;10.580;2024-01-11T06:34:10;102135.09;;;3.80;67.32
35129;BME280;21301;43.626;10.580;2024-01-11T06:36:35;102142.16;;;3.76;67.01
35129;BME280;21301;43.626;10.580;2024-01-11T06:39:01;102139.69;;;3.70;67.13
35129;BME280;21301;43.626;10.580;2024-01-11T06:41:27;102137.84;;;3.75;67.10
35129;BME280;21301;43.626;10.580;2024-01-11T06:43:53;102149.88;;;3.79;67.03
35129;BME280;21301;43.626;10.580;2024-01-11T06:46:20;102145.56;;;3.78;66.61
35129;BME280;21301;43.626;10.580;2024-01-11T06:48:47;102144.84;;;3.72;67.06
35129;BME280;21301;43.626;10.580;2024-01-11T06:51:21;102135.09;;;3.80;66.80
35129;BME280;21301;43.626;10.580;2024-01-11T06:53:47;102137.03;;;3.73;67.39
35129;BME280;21301;43.626;10.580;2024-01-11T06:56:18;102142.38;;;3.67;67.19
35129;BME280;21301;43.626;10.580;2024-01-11T06:58:45;102144.84;;;3.72;67.84
35129;BME280;21301;43.626;10.580;2024-01-11T07:01:11;102139.66;;;3.72;66.99
35129;BME280;21301;43.626;10.580;2024-01-11T07:03:38;102136.94;;;3.76;67.12
35129;BME280;21301;43.626;10.580;2024-01-11T07:06:05;102137.69;;;3.80;67.15
35129;BME280;21301;43.626;10.580;2024-01-11T07:08:32;102137.56;;;3.86;66.51
35129;BME280;21301;43.626;10.580;2024-01-11T07:11:00;102140.88;;;3.93;66.45
35129;BME280;21301;43.626;10.580;2024-01-11T07:13:28;102137.00;;;4.09;66.18
35129;BME280;21301;43.626;10.580;2024-01-11T07:15:54;102130.75;;;4.15;65.82
35129;BME280;21301;43.626;10.580;2024-01-11T07:18:21;102147.94;;;4.20;65.71
35129;BME280;21301;43.626;10.580;2024-01-11T07:20:47;102157.50;;;4.20;65.85
35129;BME280;21301;43.626;10.580;2024-01-11T07:23:13;102152.66;;;4.06;66.62
35129;BME280;21301;43.626;10.580;2024-01-11T07:25:39;102150.34;;;3.95;66.53
35129;BME280;21301;43.626;10.580;2024-01-11T07:28:06;102154.94;;;4.18;66.65
35129;BME280;21301;43.626;10.580;2024-01-11T07:30:32;102148.44;;;5.25;65.31
35129;BME280;21301;43.626;10.580;2024-01-11T07:32:57;102139.97;;;6.49;62.19
35129;BME280;21301;43.626;10.580;2024-01-11T07:35:23;102151.56;;;7.12;59.05
35129;BME280;21301;43.626;10.580;2024-01-11T07:37:48;102137.03;;;7.92;57.46
35129;BME280;21301;43.626;10.580;2024-01-11T07:40:16;102141.13;;;8.38;56.25
35129;BME280;21301;43.626;10.580;2024-01-11T07:42:45;102136.19;;;8.71;54.47
35129;BME280;21301;43.626;10.580;2024-01-11T07:45:25;102140.88;;;9.03;52.11
35129;BME280;21301;43.626;10.580;2024-01-11T07:47:50;102141.31;;;9.30;52.04
35129;BME280;21301;43.626;10.580;2024-01-11T07:50:16;102136.06;;;9.30;51.63
35129;BME280;21301;43.626;10.580;2024-01-11T07:52:41;102141.88;;;9.73;50.35
35129;BME280;21301;43.626;10.580;2024-01-11T07:55:08;102144.44;;;9.74;49.62
35129;BME280;21301;43.626;10.580;2024-01-11T07:57:35;102135.72;;;10.24;49.64
35129;BME280;21301;43.626;10.580;2024-01-11T08:00:01;102134.72;;;10.78;48.72
35129;BME280;21301;43.626;10.580;2024-01-11T08:02:28;102140.22;;;10.73;48.20
35129;BME280;21301;43.626;10.580;2024-01-11T08:04:55;102139.88;;;10.79;46.85
35129;BME280;21301;43.626;10.580;2024-01-11T08:07:22;102135.81;;;11.67;46.41
35129;BME280;21301;43.626;10.580;2024-01-11T08:09:48;102136.66;;;11.68;46.77
35129;BME280;21301;43.626;10.580;2024-01-11T08:12:16;102129.00;;;12.67;45.59
35129;BME280;21301;43.626;10.580;2024-01-11T08:14:42;102130.44;;;12.72;45.48
35129;BME280;21301;43.626;10.580;2024-01-11T08:17:08;102132.88;;;12.61;44.31
35129;BME280;21301;43.626;10.580;2024-01-11T08:19:34;102127.88;;;12.56;43.82
35129;BME280;21301;43.626;10.580;2024-01-11T08:22:00;102131.00;;;12.49;43.85
35129;BME280;21301;43.626;10.580;2024-01-11T08:24:28;102121.47;;;13.16;42.73
35129;BME280;21301;43.626;10.580;2024-01-11T08:26:54;102113.91;;;13.10;41.96
35129;BME280;21301;43.626;10.580;2024-01-11T08:29:21;102123.50;;;12.84;42.67
35129;BME280;21301;43.626;10.580;2024-01-11T08:31:49;102120.59;;;13.30;42.35
35129;BME280;21301;43.626;10.580;2024-01-11T08:34:14;102127.38;;;12.93;42.74
35129;BME280;21301;43.626;10.580;2024-01-11T08:36:42;102124.97;;;11.88;43.71
35129;BME280;21301;43.626;10.580;2024-01-11T08:39:08;102135.44;;;11.89;43.60
35129;BME280;21301;43.626;10.580;2024-01-11T08:41:36;102128.09;;;10.71;45.42
35129;BME280;21301;43.626;10.580;2024-01-11T08:44:04;102132.59;;;11.00;46.38
35129;BME280;21301;43.626;10.580;2024-01-11T08:46:33;102140.34;;;10.54;47.35
35129;BME280;21301;43.626;10.580;2024-01-11T08:49:00;102140.00;;;9.92;47.21
35129;BME280;21301;43.626;10.580;2024-01-11T08:51:27;102137.84;;;9.83;48.42
35129;BME280;21301;43.626;10.580;2024-01-11T08:53:54;102131.91;;;9.97;48.39
35129;BME280;21301;43.626;10.580;2024-01-11T08:56:19;102135.84;;;9.71;48.11
35129;BME280;21301;43.626;10.580;2024-01-11T08:58:45;102126.50;;;9.65;48.52
35129;BME280;21301;43.626;10.580;2024-01-11T09:01:13;102132.47;;;9.50;49.00
35129;BME280;21301;43.626;10.580;2024-01-11T09:03:40;102126.66;;;9.62;48.76
35129;BME280;21301;43.626;10.580;2024-01-11T09:06:07;102122.44;;;9.41;48.56
35129;BME280;21301;43.626;10.580;2024-01-11T09:08:34;102128.75;;;9.36;48.43
35129;BME280;21301;43.626;10.580;2024-01-11T09:10:59;102128.78;;;9.54;48.63
35129;BME280;21301;43.626;10.580;2024-01-11T09:13:26;102129.31;;;9.43;48.50
35129;BME280;21301;43.626;10.580;2024-01-11T09:15:53;102113.16;;;9.33;48.46
35129;BME280;21301;43.626;10.580;2024-01-11T09:18:24;102119.91;;;9.56;48.71
35129;BME280;21301;43.626;10.580;2024-01-11T09:20:50;102122.16;;;9.64;48.81
35129;BME280;21301;43.626;10.580;2024-01-11T09:23:16;102111.47;;;9.50;48.33
35129;BME280;21301;43.626;10.580;2024-01-11T09:25:41;102098.66;;;9.61;48.37
35129;BME280;21301;43.626;10.580;2024-01-11T09:28:08;102105.78;;;9.76;48.03
35129;BME280;21301;43.626;10.580;2024-01-11T09:30:33;102106.72;;;9.58;47.93
35129;BME280;21301;43.626;10.580;2024-01-11T09:32:59;102104.16;;;9.74;47.92
35129;BME280;21301;43.626;10.580;2024-01-11T09:35:25;102100.91;;;9.69;47.30
35129;BME280;21301;43.626;10.580;2024-01-11T09:37:51;102106.41;;;9.99;47.52
35129;BME280;21301;43.626;10.580;2024-01-11T09:40:17;102100.69;;;9.73;46.95
35129;BME280;21301;43.626;10.580;2024-01-11T09:42:44;102106.47;;;9.80;47.14
35129;BME280;21301;43.626;10.580;2024-01-11T09:45:17;102103.63;;;9.85;46.86
35129;BME280;21301;43.626;10.580;2024-01-11T09:47:43;102093.91;;;9.69;46.71
35129;BME280;21301;43.626;10.580;2024-01-11T09:50:16;102086.25;;;9.82;46.71
35129;BME280;21301;43.626;10.580;2024-01-11T09:52:47;102093.34;;;9.80;46.76
35129;BME280;21301;43.626;10.580;2024-01-11T09:55:13;102095.75;;;9.85;46.76
35129;BME280;21301;43.626;10.580;2024-01-11T09:57:44;102086.50;;;10.28;46.42
35129;BME280;21301;43.626;10.580;2024-01-11T10:00:13;102101.28;;;10.13;46.56
35129;BME280;21301;43.626;10.580;2024-01-11T10:02:39;102094.69;;;10.39;46.67
35129;BME280;21301;43.626;10.580;2024-01-11T10:05:05;102091.81;;;10.27;46.11
35129;BME280;21301;43.626;10.580;2024-01-11T10:07:32;102079.50;;;10.60;46.19
35129;BME280;21301;43.626;10.580;2024-01-11T10:09:59;102085.59;;;10.45;45.66
35129;BME280;21301;43.626;10.580;2024-01-11T10:12:27;102072.56;;;10.59;46.15
35129;BME280;21301;43.626;10.580;2024-01-11T10:14:53;102070.59;;;10.63;46.25
35129;BME280;21301;43.626;10.580;2024-01-11T10:17:19;102067.22;;;10.61;46.06
35129;BME280;21301;43.626;10.580;2024-01-11T10:19:46;102066.53;;;10.57;45.64
35129;BME280;21301;43.626;10.580;2024-01-11T10:22:13;102060.06;;;10.63;45.37
35129;BME280;21301;43.626;10.580;2024-01-11T10:24:42;102058.31;;;10.79;45.26
35129;BME280;21301;43.626;10.580;2024-01-11T10:27:10;102055.91;;;10.75;45.73
35129;BME280;21301;43.626;10.580;2024-01-11T10:29:36;102051.00;;;10.84;45.83
35129;BME280;21301;43.626;10.580;2024-01-11T10:32:07;102055.16;;;10.57;44.87
35129;BME280;21301;43.626;10.580;2024-01-11T10:34:34;102047.78;;;10.63;45.57
35129;BME280;21301;43.626;10.580;2024-01-11T10:36:59;102048.53;;;10.97;45.01
35129;BME280;21301;43.626;10.580;2024-01-11T10:39:26;102038.72;;;10.69;44.83
35129;BME280;21301;43.626;10.580;2024-01-11T10:42:06;102041.59;;;10.80;44.77
35129;BME280;21301;43.626;10.580;2024-01-11T10:44:34;102031.16;;;10.79;45.11
35129;BME280;21301;43.626;10.580;2024-01-11T10:47:02;102038.19;;;10.78;45.19
35129;BME280;21301;43.626;10.580;2024-01-11T10:49:32;102025.38;;;10.88;45.41
35129;BME280;21301;43.626;10.580;2024-01-11T10:52:05;102030.56;;;10.74;44.75
35129;BME280;21301;43.626;10.580;2024-01-11T10:54:34;102025.63;;;10.83;44.33
35129;BME280;21301;43.626;10.580;2024-01-11T10:57:00;102025.25;;;11.05;44.76
35129;BME280;21301;43.626;10.580;2024-01-11T10:59:31;102021.78;;;10.89;44.95
35129;BME280;21301;43.626;10.580;2024-01-11T11:02:03;102015.25;;;10.96;44.22
35129;BME280;21301;43.626;10.580;2024-01-11T11:04:31;102011.59;;;10.99;44.71
35129;BME280;21301;43.626;10.580;2024-01-11T11:07:00;102008.66;;;10.57;44.58
35129;BME280;21301;43.626;10.580;2024-01-11T11:09:27;101998.41;;;10.69;44.90
35129;BME280;21301;43.626;10.580;2024-01-11T11:11:56;101995.91;;;10.97;44.99
35129;BME280;21301;43.626;10.580;2024-01-11T11:14:24;101999.56;;;10.79;44.81
35129;BME280;21301;43.626;10.580;2024-01-11T11:16:51;101995.91;;;10.97;45.31
35129;BME280;21301;43.626;10.580;2024-01-11T11:19:19;101991.22;;;11.02;44.90
35129;BME280;21301;43.626;10.580;2024-01-11T11:21:45;101982.47;;;11.02;44.44
35129;BME280;21301;43.626;10.580;2024-01-11T11:24:12;101979.28;;;10.81;44.90
35129;BME280;21301;43.626;10.580;2024-01-11T11:26:41;101973.91;;;10.98;44.60
35129;BME280;21301;43.626;10.580;2024-01-11T11:29:08;101973.53;;;10.74;44.40
35129;BME280;21301;43.626;10.580;2024-01-11T11:31:52;101973.25;;;10.79;44.59
35129;BME280;21301;43.626;10.580;2024-01-11T11:34:39;101956.44;;;10.81;45.09
35129;BME280;21301;43.626;10.580;2024-01-11T11:37:05;101963.44;;;10.82;45.17
35129;BME280;21301;43.626;10.580;2024-01-11T11:39:31;101956.06;;;11.03;45.25
35129;BME280;21301;43.626;10.580;2024-01-11T11:41:58;101941.09;;;11.04;44.41
35129;BME280;21301;43.626;10.580;2024-01-11T11:44:25;101946.63;;;10.69;44.10
35129;BME280;21301;43.626;10.580;2024-01-11T11:46:51;101931.19;;;10.63;44.04
35129;BME280;21301;43.626;10.580;2024-01-11T11:49:17;101936.75;;;10.88;45.06
35129;BME280;21301;43.626;10.580;2024-01-11T11:51:43;101921.91;;;10.87;44.81
35129;BME280;21301;43.626;10.580;2024-01-11T11:54:09;101924.38;;;10.75;44.18
35129;BME280;21301;43.626;10.580;2024-01-11T11:56:40;101916.00;;;10.98;44.54
35129;BME280;21301;43.626;10.580;2024-01-11T11:59:06;101919.16;;;10.89;43.50
35129;BME280;21301;43.626;10.580;2024-01-11T12:01:35;101906.63;;;11.08;43.79
35129;BME280;21301;43.626;10.580;2024-01-11T12:04:01;101912.03;;;11.21;44.40
35129;BME280;21301;43.626;10.580;2024-01-11T12:06:27;101910.50;;;10.87;45.09
35129;BME280;21301;43.626;10.580;2024-01-11T12:08:55;101897.94;;;10.92;44.61
35129;BME280;21301;43.626;10.580;2024-01-11T12:11:22;101908.69;;;11.03;44.56
35129;BME280;21301;43.626;10.580;2024-01-11T12:13:49;101901.97;;;10.83;44.31
35129;BME280;21301;43.626;10.580;2024-01-11T12:16:15;101897.66;;;10.66;43.97
35129;BME280;21301;43.626;10.580;2024-01-11T12:18:41;101895.81;;;10.69;44.14
35129;BME280;21301;43.626;10.580;2024-01-11T12:21:08;101893.22;;;10.83;44.48
35129;BME280;21301;43.626;10.580;2024-01-11T12:23:34;101884.50;;;10.82;44.29
35129;BME280;21301;43.626;10.580;2024-01-11T12:26:06;101880.44;;;10.91;43.71
35129;BME280;21301;43.626;10.580;2024-01-11T12:28:34;101877.81;;;10.91;44.18
35129;BME280;21301;43.626;10.580;2024-01-11T12:30:59;101876.97;;;10.91;43.82
35129;BME280;21301;43.626;10.580;2024-01-11T12:33:26;101871.34;;;11.11;44.11
35129;BME280;21301;43.626;10.580;2024-01-11T12:35:52;101870.13;;;10.88;44.62
35129;BME280;21301;43.626;10.580;2024-01-11T12:38:18;101876.81;;;11.08;43.99
35129;BME280;21301;43.626;10.580;2024-01-11T12:40:45;101875.88;;;10.95;43.73
35129;BME280;21301;43.626;10.580;2024-01-11T12:43:12;101859.34;;;11.07;44.63
35129;BME280;21301;43.626;10.580;2024-01-11T12:45:39;101860.72;;;10.98;44.17
35129;BME280;21301;43.626;10.580;2024-01-11T12:48:08;101858.00;;;10.85;43.22